createdAt,value
2018-12-09T00:01:18.605Z,80.36
2018-12-09T00:03:29.438Z,79.34
2018-12-09T00:05:40.310Z,79.54
2018-12-09T00:07:51.161Z,80.40
2018-12-09T00:10:02.138Z,80.47
2018-12-09T00:12:12.994Z,80.39
2018-12-09T00:14:23.841Z,80.57
2018-12-09T00:16:34.701Z,79.73
2018-12-09T00:18:45.563Z,79.23
2018-12-09T00:20:56.396Z,78.74
2018-12-09T00:23:07.298Z,78.91
2018-12-09T00:25:18.257Z,78.27
2018-12-09T00:27:29.109Z,77.47
2018-12-09T00:29:39.942Z,77.15
2018-12-09T00:31:50.984Z,76.20
2018-12-09T00:34:02.861Z,76.39
2018-12-09T00:36:13.781Z,75.55
2018-12-09T00:38:24.656Z,75.36
2018-12-09T00:40:35.522Z,75.05
2018-12-09T00:42:46.364Z,74.63
2018-12-09T00:44:57.219Z,74.39
2018-12-09T00:47:08.076Z,74.67
2018-12-09T00:49:18.961Z,74.65
2018-12-09T00:51:29.833Z,73.33
2018-12-09T00:53:40.725Z,73.61
2018-12-09T00:55:51.605Z,72.84
2018-12-09T00:58:02.594Z,72.10
2018-12-09T01:00:13.694Z,72.37
2018-12-09T01:02:24.560Z,72.40
2018-12-09T01:04:35.433Z,73.30
2018-12-09T01:06:46.282Z,72.52
2018-12-09T01:08:57.164Z,72.57
2018-12-09T01:11:08.054Z,72.73
2018-12-09T01:13:18.902Z,72.85
2018-12-09T01:15:29.769Z,71.47
2018-12-09T01:17:40.648Z,71.16
2018-12-09T01:19:51.645Z,71.49
2018-12-09T01:22:02.505Z,71.05
2018-12-09T01:24:13.374Z,69.82
2018-12-09T01:26:24.362Z,70.62
2018-12-09T01:28:35.204Z,69.81
2018-12-09T01:30:46.159Z,69.71
2018-12-09T01:32:57.199Z,69.93
2018-12-09T01:35:08.181Z,69.55
2018-12-09T01:37:19.439Z,69.11
2018-12-09T01:39:30.684Z,69.76
2018-12-09T01:41:41.566Z,69.57
2018-12-09T01:43:52.403Z,68.81
2018-12-09T01:46:03.304Z,68.42
2018-12-09T01:48:14.269Z,68.24
2018-12-09T01:50:25.249Z,68.33
2018-12-09T01:52:36.244Z,68.20
2018-12-09T01:54:47.100Z,68.10
2018-12-09T01:56:58.035Z,68.07
2018-12-09T01:59:08.972Z,68.09
2018-12-09T02:01:19.825Z,67.31
2018-12-09T02:03:30.806Z,66.82
2018-12-09T02:05:41.666Z,66.09
2018-12-09T02:07:52.615Z,65.21
2018-12-09T02:10:03.580Z,65.57
2018-12-09T02:12:14.560Z,64.80
2018-12-09T02:14:25.505Z,63.24
2018-12-09T02:16:36.385Z,63.77
2018-12-09T02:18:51.364Z,64.69
2018-12-09T02:21:02.452Z,64.82
2018-12-09T02:23:13.402Z,65.96
2018-12-09T02:25:24.353Z,65.17
2018-12-09T02:27:35.301Z,65.84
2018-12-09T02:29:46.149Z,66.45
2018-12-09T02:31:56.997Z,65.94
2018-12-09T02:34:08.036Z,66.70
2018-12-09T02:36:19.300Z,67.12
2018-12-09T02:38:30.653Z,67.55
2018-12-09T02:40:41.593Z,68.85
2018-12-09T02:42:52.567Z,69.13
2018-12-09T02:45:04.010Z,69.96
2018-12-09T02:47:14.937Z,70.51
2018-12-09T02:49:25.873Z,71.53
2018-12-09T02:51:36.818Z,71.75
2018-12-09T02:53:47.887Z,71.93
2018-12-09T02:55:58.916Z,71.77
2018-12-09T02:58:09.795Z,72.20
2018-12-09T03:00:20.978Z,72.42
2018-12-09T03:02:31.799Z,72.73
2018-12-09T03:04:42.783Z,72.79
2018-12-09T03:06:53.605Z,73.39
2018-12-09T03:09:05.953Z,75.93
2018-12-09T03:11:16.774Z,77.65
2018-12-09T03:13:27.733Z,79.11
2018-12-09T03:15:38.683Z,79.71
2018-12-09T03:17:49.612Z,79.76
2018-12-09T03:20:00.574Z,80.65
2018-12-09T03:22:11.420Z,79.94
2018-12-09T03:24:22.276Z,79.67
2018-12-09T03:26:33.104Z,79.27
2018-12-09T03:28:44.059Z,78.33
2018-12-09T03:30:55.429Z,77.91
2018-12-09T03:33:06.785Z,78.12
2018-12-09T03:35:17.871Z,77.55
2018-12-09T03:37:28.852Z,78.08
2018-12-09T03:39:39.817Z,78.32
2018-12-09T03:41:50.676Z,76.88
2018-12-09T03:44:01.632Z,76.85
2018-12-09T03:46:12.488Z,75.85
2018-12-09T03:48:23.405Z,75.69
2018-12-09T03:50:34.337Z,75.03
2018-12-09T03:52:45.290Z,75.17
2018-12-09T03:54:56.268Z,73.84
2018-12-09T03:57:07.116Z,74.50
2018-12-09T03:59:18.059Z,73.07
2018-12-09T04:01:29.005Z,73.05
2018-12-09T04:03:39.940Z,73.18
2018-12-09T04:05:50.801Z,73.10
2018-12-09T04:08:01.835Z,73.72
2018-12-09T04:10:12.784Z,72.57
2018-12-09T04:12:23.735Z,73.41
2018-12-09T04:14:34.706Z,72.41
2018-12-09T04:16:46.300Z,72.07
2018-12-09T04:18:57.522Z,71.72
2018-12-09T04:21:08.488Z,72.22
2018-12-09T04:23:20.125Z,72.01
2018-12-09T04:25:31.071Z,71.15
2018-12-09T04:27:42.050Z,71.42
2018-12-09T04:29:52.889Z,71.35
2018-12-09T04:32:03.733Z,71.66
2018-12-09T04:34:14.561Z,71.76
2018-12-09T04:36:25.554Z,71.56
2018-12-09T04:38:36.380Z,71.81
2018-12-09T04:40:47.225Z,71.78
2018-12-09T04:42:58.290Z,71.21
2018-12-09T04:45:09.224Z,71.18
2018-12-09T04:47:20.077Z,71.68
2018-12-09T04:49:30.934Z,71.62
2018-12-09T04:51:50.798Z,72.41
2018-12-09T04:54:01.778Z,72.56
2018-12-09T04:56:12.701Z,72.18
2018-12-09T04:58:23.553Z,72.48
2018-12-09T05:00:53.260Z,71.46
2018-12-09T05:03:04.105Z,71.84
2018-12-09T05:05:15.029Z,72.30
2018-12-09T05:07:25.986Z,72.13
2018-12-09T05:09:36.841Z,71.26
2018-12-09T05:11:47.802Z,70.45
2018-12-09T05:13:58.745Z,71.02
2018-12-09T05:16:09.683Z,70.98
2018-12-09T05:18:20.637Z,71.48
2018-12-09T05:20:31.956Z,71.59
2018-12-09T05:22:43.434Z,73.47
2018-12-09T05:24:54.286Z,72.43
2018-12-09T05:27:05.137Z,72.63
2018-12-09T05:29:15.995Z,72.73
2018-12-09T05:31:26.876Z,73.61
2018-12-09T05:33:37.729Z,73.18
2018-12-09T05:35:48.665Z,73.23
2018-12-09T05:37:59.630Z,73.33
2018-12-09T05:40:12.015Z,73.82
2018-12-09T05:42:23.069Z,72.02
2018-12-09T05:44:34.002Z,71.66
2018-12-09T05:46:44.937Z,72.18
2018-12-09T05:48:55.765Z,71.34
2018-12-09T05:51:06.714Z,71.28
2018-12-09T05:53:17.592Z,70.98
2018-12-09T05:55:28.532Z,70.54
2018-12-09T05:57:39.462Z,69.98
2018-12-09T05:59:50.441Z,69.46
2018-12-09T06:02:13.692Z,68.88
2018-12-09T06:04:24.630Z,68.17
2018-12-09T06:06:35.594Z,68.18
2018-12-09T06:08:46.512Z,68.39
2018-12-09T06:10:57.574Z,68.39
2018-12-09T06:13:08.825Z,68.04
2018-12-09T06:15:19.788Z,68.45
2018-12-09T06:17:30.750Z,67.82
2018-12-09T06:19:41.669Z,68.98
2018-12-09T06:21:52.637Z,68.57
2018-12-09T06:24:03.570Z,68.57
2018-12-09T06:26:14.537Z,68.04
2018-12-09T06:28:25.479Z,69.67
2018-12-09T06:30:36.317Z,70.81
2018-12-09T06:32:47.181Z,71.03
2018-12-09T06:34:58.112Z,70.69
2018-12-09T06:37:09.072Z,70.05
2018-12-09T06:39:19.993Z,70.64
2018-12-09T06:41:30.972Z,70.97
2018-12-09T06:43:41.825Z,70.86
2018-12-09T06:45:52.745Z,70.12
2018-12-09T06:48:03.709Z,70.96
2018-12-09T06:50:14.768Z,70.49
2018-12-09T06:52:25.824Z,70.10
2018-12-09T06:54:37.039Z,69.98
2018-12-09T06:56:47.981Z,68.90
2018-12-09T06:58:58.849Z,69.19
2018-12-09T07:01:09.773Z,68.73
2018-12-09T07:03:20.616Z,68.49
2018-12-09T07:05:31.475Z,68.16
2018-12-09T07:07:42.516Z,69.09
2018-12-09T07:09:53.352Z,68.63
2018-12-09T07:12:04.237Z,68.03
2018-12-09T07:14:15.061Z,69.40
2018-12-09T07:16:25.920Z,68.41
2018-12-09T07:18:36.781Z,68.39
2018-12-09T07:20:47.602Z,67.94
2018-12-09T07:22:58.429Z,68.41
2018-12-09T07:25:09.268Z,68.42
2018-12-09T07:27:20.588Z,68.70
2018-12-09T07:29:31.915Z,68.28
2018-12-09T07:31:42.768Z,68.84
2018-12-09T07:33:53.640Z,69.16
2018-12-09T07:36:04.589Z,69.01
2018-12-09T07:38:15.544Z,67.63
2018-12-09T07:40:26.462Z,67.89
2018-12-09T07:42:37.425Z,68.18
2018-12-09T07:44:48.501Z,68.49
2018-12-09T07:46:59.460Z,69.37
2018-12-09T07:49:10.439Z,69.33
2018-12-09T07:51:21.377Z,69.10
2018-12-09T07:53:32.244Z,75.06
2018-12-09T07:55:43.112Z,72.24
2018-12-09T07:57:53.941Z,67.48
2018-12-09T08:00:07.177Z,67.21
2018-12-09T08:02:18.037Z,68.38
2018-12-09T08:04:28.901Z,67.59
2018-12-09T08:06:39.772Z,68.14
2018-12-09T08:08:50.594Z,67.41
2018-12-09T08:11:01.589Z,67.22
2018-12-09T08:13:12.452Z,67.69
2018-12-09T08:15:23.340Z,68.14
2018-12-09T08:17:34.224Z,67.28
2018-12-09T08:19:45.121Z,67.29
2018-12-09T08:21:55.982Z,68.03
2018-12-09T08:24:06.828Z,68.33
2018-12-09T08:26:17.687Z,68.26
2018-12-09T08:28:28.544Z,68.17
2018-12-09T08:30:39.376Z,68.51
2018-12-09T08:32:50.255Z,68.45
2018-12-09T08:35:01.152Z,67.59
2018-12-09T08:37:12.011Z,67.81
2018-12-09T08:39:22.887Z,68.61
2018-12-09T08:41:33.911Z,67.71
2018-12-09T08:43:44.780Z,66.84
2018-12-09T08:45:57.241Z,68.10
2018-12-09T08:48:08.282Z,66.54
2018-12-09T08:50:19.153Z,67.52
2018-12-09T08:52:30.075Z,67.53
2018-12-09T08:54:41.068Z,68.30
2018-12-09T08:56:51.963Z,68.55
2018-12-09T08:59:02.804Z,67.69
2018-12-09T09:01:13.698Z,67.16
2018-12-09T09:03:24.536Z,67.08
2018-12-09T09:05:35.370Z,66.96
2018-12-09T09:07:46.255Z,66.14
2018-12-09T09:09:57.127Z,66.33
2018-12-09T09:12:08.036Z,67.37
2018-12-09T09:14:18.952Z,67.31
2018-12-09T09:16:29.779Z,66.63
2018-12-09T09:18:40.653Z,67.27
2018-12-09T09:20:51.472Z,67.29
2018-12-09T09:23:02.333Z,68.77
2018-12-09T09:25:13.172Z,70.97
2018-12-09T09:27:24.017Z,71.49
2018-12-09T09:29:34.879Z,71.23
2018-12-09T09:31:45.835Z,70.44
2018-12-09T09:33:56.700Z,70.82
2018-12-09T09:36:07.528Z,70.42
2018-12-09T09:38:18.413Z,71.09
2018-12-09T09:40:29.330Z,70.36
2018-12-09T09:42:40.188Z,71.92
2018-12-09T09:44:51.053Z,70.82
2018-12-09T09:47:01.939Z,70.64
2018-12-09T09:49:13.038Z,71.32
2018-12-09T09:51:23.916Z,71.40
2018-12-09T09:53:34.767Z,71.15
2018-12-09T09:55:45.661Z,72.61
2018-12-09T09:57:56.553Z,72.21
2018-12-09T10:00:07.460Z,71.77
2018-12-09T10:02:18.326Z,71.27
2018-12-09T10:04:29.242Z,71.71
2018-12-09T10:06:40.087Z,72.57
2018-12-09T10:08:50.920Z,72.87
2018-12-09T10:11:01.875Z,74.56
2018-12-09T10:13:12.873Z,74.32
2018-12-09T10:15:23.706Z,74.13
2018-12-09T10:17:34.604Z,74.40
2018-12-09T10:19:45.472Z,75.29
2018-12-09T10:21:56.326Z,75.97
2018-12-09T10:24:07.191Z,74.76
2018-12-09T10:26:18.063Z,75.54
2018-12-09T10:28:28.905Z,75.29
2018-12-09T10:30:39.750Z,74.55
2018-12-09T10:32:50.613Z,74.22
2018-12-09T10:35:01.577Z,73.87
2018-12-09T10:37:12.467Z,74.08
2018-12-09T10:39:23.329Z,74.66
2018-12-09T10:41:34.239Z,73.99
2018-12-09T10:43:45.137Z,75.91
2018-12-09T10:45:56.003Z,75.73
2018-12-09T10:48:06.905Z,75.91
2018-12-09T10:50:17.731Z,75.38
2018-12-09T10:52:28.600Z,76.14
2018-12-09T10:54:39.475Z,74.89
2018-12-09T10:56:50.368Z,75.14
2018-12-09T10:59:01.336Z,73.58
2018-12-09T11:01:18.368Z,73.54
2018-12-09T11:03:29.338Z,73.59
2018-12-09T11:05:40.188Z,74.15
2018-12-09T11:07:51.033Z,73.90
2018-12-09T11:10:02.043Z,73.75
2018-12-09T11:12:12.925Z,73.43
2018-12-09T11:14:23.750Z,73.33
2018-12-09T11:16:34.617Z,74.42
2018-12-09T11:18:45.521Z,74.61
2018-12-09T11:20:56.521Z,74.40
2018-12-09T11:23:07.413Z,74.83
2018-12-09T11:25:18.389Z,73.88
2018-12-09T11:27:29.256Z,74.69
2018-12-09T11:29:40.122Z,75.25
2018-12-09T11:31:50.987Z,75.34
2018-12-09T11:34:01.855Z,74.85
2018-12-09T11:36:12.733Z,74.10
2018-12-09T11:38:23.672Z,74.21
2018-12-09T11:40:34.611Z,73.26
2018-12-09T11:42:45.458Z,73.80
2018-12-09T11:44:56.338Z,73.80
2018-12-09T11:47:07.222Z,72.91
2018-12-09T11:49:18.118Z,73.05
2018-12-09T11:51:29.002Z,73.43
2018-12-09T11:53:39.912Z,72.92
2018-12-09T11:55:50.753Z,73.02
2018-12-09T11:58:01.658Z,73.33
2018-12-09T12:00:12.798Z,73.66
2018-12-09T12:02:23.672Z,73.43
2018-12-09T12:04:34.554Z,74.03
2018-12-09T12:06:45.420Z,74.22
2018-12-09T12:08:56.281Z,73.83
2018-12-09T12:11:07.159Z,73.14
2018-12-09T12:13:18.088Z,73.88
2018-12-09T12:15:28.953Z,74.07
2018-12-09T12:17:39.863Z,74.30
2018-12-09T12:19:50.720Z,74.58
2018-12-09T12:22:01.571Z,74.50
2018-12-09T12:24:12.451Z,74.61
2018-12-09T12:26:23.484Z,74.01
2018-12-09T12:28:34.533Z,74.37
2018-12-09T12:30:46.352Z,74.81
2018-12-09T12:32:57.233Z,74.59
2018-12-09T12:35:08.157Z,74.31
2018-12-09T12:37:19.055Z,74.13
2018-12-09T12:39:29.928Z,74.36
2018-12-09T12:41:40.866Z,73.96
2018-12-09T12:43:51.841Z,74.61
2018-12-09T12:46:02.774Z,75.11
2018-12-09T12:48:13.675Z,74.42
2018-12-09T12:50:24.574Z,75.44
2018-12-09T12:52:35.448Z,75.31
2018-12-09T12:54:46.332Z,75.78
2018-12-09T12:56:57.215Z,76.33
2018-12-09T12:59:08.073Z,76.26
2018-12-09T13:01:18.983Z,76.48
2018-12-09T13:03:29.861Z,76.45
2018-12-09T13:05:40.765Z,76.47
2018-12-09T13:07:51.625Z,76.66
2018-12-09T13:10:04.051Z,76.81
2018-12-09T13:12:14.937Z,77.05
2018-12-09T13:14:25.973Z,76.73
2018-12-09T13:16:36.844Z,77.73
2018-12-09T13:18:47.692Z,78.32
2018-12-09T13:20:58.583Z,78.34
2018-12-09T13:23:09.478Z,78.67
2018-12-09T13:25:20.340Z,79.20
2018-12-09T13:27:31.275Z,80.05
2018-12-09T13:29:42.380Z,80.07
2018-12-09T13:31:53.251Z,80.54
2018-12-09T13:34:04.160Z,79.64
2018-12-09T13:36:15.190Z,79.12
2018-12-09T13:38:26.350Z,78.44
2018-12-09T13:40:37.320Z,78.18
2018-12-09T13:42:48.335Z,78.17
2018-12-09T13:44:59.340Z,78.30
2018-12-09T13:47:10.245Z,77.93
2018-12-09T13:49:21.193Z,77.93
2018-12-09T13:51:32.141Z,77.84
2018-12-09T13:53:43.036Z,77.80
2018-12-09T13:55:53.868Z,78.34
2018-12-09T13:58:04.769Z,79.52
2018-12-09T14:00:17.695Z,79.16
2018-12-09T14:02:28.572Z,79.10
2018-12-09T14:04:39.425Z,79.42
2018-12-09T14:06:50.322Z,79.31
2018-12-09T14:09:01.240Z,78.96
2018-12-09T14:11:12.159Z,80.41
2018-12-09T14:13:23.042Z,80.99
2018-12-09T14:15:33.914Z,81.40
2018-12-09T14:17:44.892Z,80.77
2018-12-09T14:19:55.943Z,80.49
2018-12-09T14:22:06.855Z,80.36
2018-12-09T14:24:17.847Z,81.10
2018-12-09T14:26:28.765Z,80.99
2018-12-09T14:28:39.803Z,81.36
2018-12-09T14:30:50.693Z,81.91
2018-12-09T14:33:01.550Z,81.60
2018-12-09T14:35:12.450Z,80.88
2018-12-09T14:37:23.329Z,81.36
2018-12-09T14:39:34.401Z,81.24
2018-12-09T14:41:45.423Z,81.33
2018-12-09T14:43:56.309Z,80.94
2018-12-09T14:46:07.186Z,81.95
2018-12-09T14:48:18.144Z,81.32
2018-12-09T14:50:29.040Z,81.29
2018-12-09T14:52:40.064Z,81.37
2018-12-09T14:54:50.975Z,81.95
2018-12-09T14:57:02.009Z,82.31
2018-12-09T14:59:13.010Z,82.08
2018-12-09T15:01:23.989Z,82.65
2018-12-09T15:03:34.940Z,82.60
2018-12-09T15:05:45.826Z,82.18
2018-12-09T15:07:56.731Z,82.85
2018-12-09T15:10:08.977Z,82.99
2018-12-09T15:12:20.427Z,82.45
2018-12-09T15:14:31.321Z,83.16
2018-12-09T15:16:42.260Z,83.01
2018-12-09T15:18:53.158Z,82.04
2018-12-09T15:21:04.192Z,82.29
2018-12-09T15:23:15.043Z,82.80
2018-12-09T15:25:26.028Z,83.23
2018-12-09T15:27:36.960Z,83.29
2018-12-09T15:29:47.865Z,82.96
2018-12-09T15:31:58.743Z,82.60
2018-12-09T15:34:09.614Z,81.83
2018-12-09T15:36:20.505Z,82.19
2018-12-09T15:38:31.369Z,81.48
2018-12-09T15:40:42.252Z,82.49
2018-12-09T15:42:53.177Z,82.09
2018-12-09T15:45:05.729Z,81.65
2018-12-09T15:47:16.630Z,82.54
2018-12-09T15:49:28.392Z,81.92
2018-12-09T15:51:39.386Z,82.82
2018-12-09T15:53:50.303Z,81.62
2018-12-09T15:56:01.272Z,81.06
2018-12-09T15:58:12.136Z,82.13
2018-12-09T16:00:25.082Z,81.31
2018-12-09T16:02:36.231Z,82.39
2018-12-09T16:04:47.104Z,81.63
2018-12-09T16:06:57.943Z,81.01
2018-12-09T16:09:08.812Z,81.12
2018-12-09T16:11:19.699Z,81.77
2018-12-09T16:13:30.562Z,81.38
2018-12-09T16:15:41.477Z,81.96
2018-12-09T16:17:52.426Z,82.18
2018-12-09T16:20:05.256Z,82.05
2018-12-09T16:22:16.169Z,82.54
2018-12-09T16:24:27.071Z,82.60
2018-12-09T16:26:38.061Z,84.00
2018-12-09T16:28:48.974Z,83.80
2018-12-09T16:30:59.843Z,84.05
2018-12-09T16:33:10.725Z,84.30
2018-12-09T16:35:21.647Z,83.85
2018-12-09T16:37:32.642Z,84.66
2018-12-09T16:39:43.512Z,84.22
2018-12-09T16:41:54.415Z,84.00
2018-12-09T16:44:05.414Z,84.89
2018-12-09T16:46:16.306Z,84.94
2018-12-09T16:48:27.151Z,85.12
2018-12-09T16:50:38.051Z,84.64
2018-12-09T16:52:48.983Z,83.46
2018-12-09T16:54:59.861Z,83.72
2018-12-09T16:57:10.721Z,83.54
2018-12-09T16:59:21.572Z,83.87
2018-12-09T17:01:32.461Z,84.78
2018-12-09T17:03:43.334Z,84.87
2018-12-09T17:05:54.220Z,83.86
2018-12-09T17:08:05.074Z,83.78
2018-12-09T17:10:15.926Z,84.48
2018-12-09T17:12:26.861Z,84.21
2018-12-09T17:14:37.845Z,83.57
2018-12-09T17:16:48.773Z,83.54
2018-12-09T17:18:59.667Z,83.41
2018-12-09T17:21:10.567Z,82.43
2018-12-09T17:23:21.435Z,82.82
2018-12-09T17:25:32.317Z,82.91
2018-12-09T17:27:43.209Z,82.74
2018-12-09T17:29:54.097Z,82.31
2018-12-09T17:32:04.977Z,82.39
2018-12-09T17:34:15.885Z,82.01
2018-12-09T17:36:26.767Z,81.42
2018-12-09T17:38:37.663Z,81.48
2018-12-09T17:40:48.586Z,81.67
2018-12-09T17:42:59.510Z,81.94
2018-12-09T17:45:10.422Z,82.14
2018-12-09T17:47:21.318Z,81.43
2018-12-09T17:49:32.168Z,81.68
2018-12-09T17:51:43.060Z,81.38
2018-12-09T17:53:54.021Z,81.11
2018-12-09T17:56:04.893Z,81.86
2018-12-09T17:58:15.784Z,81.69
2018-12-09T18:00:26.682Z,82.00
2018-12-09T18:02:37.551Z,82.93
2018-12-09T18:04:48.400Z,83.20
2018-12-09T18:06:59.277Z,83.05
2018-12-09T18:09:10.212Z,82.90
2018-12-09T18:11:21.074Z,83.25
2018-12-09T18:13:31.970Z,82.82
2018-12-09T18:15:42.983Z,83.00
2018-12-09T18:17:53.860Z,83.51
2018-12-09T18:20:04.867Z,83.29
2018-12-09T18:22:15.767Z,82.22
2018-12-09T18:24:26.613Z,83.45
2018-12-09T18:26:37.509Z,82.95
2018-12-09T18:28:48.391Z,83.09
2018-12-09T18:30:59.293Z,82.47
2018-12-09T18:33:10.256Z,82.90
2018-12-09T18:35:21.137Z,82.72
2018-12-09T18:37:32.147Z,82.61
2018-12-09T18:39:43.164Z,81.44
2018-12-09T18:41:54.056Z,81.91
2018-12-09T18:44:04.920Z,82.43
2018-12-09T18:46:15.812Z,81.87
2018-12-09T18:48:26.795Z,81.71
2018-12-09T18:50:38.981Z,80.95
2018-12-09T18:52:50.097Z,81.06
2018-12-09T18:55:00.966Z,81.38
2018-12-09T18:57:11.861Z,81.42
2018-12-09T18:59:22.777Z,80.64
2018-12-09T19:01:33.681Z,81.10
2018-12-09T19:03:44.553Z,80.92
2018-12-09T19:05:55.472Z,80.01
2018-12-09T19:08:06.356Z,80.56
2018-12-09T19:10:17.475Z,80.55
2018-12-09T19:12:28.377Z,80.42
2018-12-09T19:14:39.255Z,80.23
2018-12-09T19:16:50.145Z,81.20
2018-12-09T19:19:01.049Z,80.50
2018-12-09T19:21:12.025Z,80.78
2018-12-09T19:23:23.061Z,80.04
2018-12-09T19:25:33.918Z,79.96
2018-12-09T19:27:44.833Z,80.01
2018-12-09T19:29:55.710Z,80.02
2018-12-09T19:32:06.608Z,80.31
2018-12-09T19:34:17.460Z,80.40
2018-12-09T19:36:28.336Z,80.82
2018-12-09T19:38:40.348Z,80.22
2018-12-09T19:40:51.680Z,79.99
2018-12-09T19:43:02.577Z,80.56
2018-12-09T19:45:13.411Z,80.21
2018-12-09T19:47:24.304Z,80.02
2018-12-09T19:49:35.223Z,80.65
2018-12-09T19:51:46.092Z,81.66
2018-12-09T19:53:57.141Z,81.02
2018-12-09T19:56:08.059Z,80.90
2018-12-09T19:58:18.936Z,81.14
2018-12-09T20:00:29.834Z,81.28
2018-12-09T20:02:40.818Z,80.43
2018-12-09T20:04:51.681Z,81.10
2018-12-09T20:07:02.591Z,81.17
2018-12-09T20:09:13.485Z,80.71
2018-12-09T20:11:24.349Z,81.39
2018-12-09T20:13:35.221Z,80.63
2018-12-09T20:15:46.139Z,81.14
2018-12-09T20:17:57.011Z,80.70
2018-12-09T20:20:07.928Z,81.59
2018-12-09T20:22:18.845Z,81.33
2018-12-09T20:24:29.725Z,81.47
2018-12-09T20:26:40.641Z,81.79
2018-12-09T20:28:51.510Z,82.06
2018-12-09T20:31:02.385Z,81.31
2018-12-09T20:33:13.301Z,83.80
2018-12-09T20:35:24.233Z,84.11
2018-12-09T20:37:35.090Z,79.22
2018-12-09T20:39:45.965Z,77.23
2018-12-09T20:41:57.013Z,76.74
2018-12-09T20:44:09.076Z,77.13
2018-12-09T20:46:20.276Z,78.18
2018-12-09T20:48:31.269Z,78.20
2018-12-09T20:50:42.133Z,77.91
2018-12-09T20:52:53.045Z,79.03
2018-12-09T20:55:05.642Z,78.39
2018-12-09T20:57:16.504Z,78.64
2018-12-09T20:59:27.516Z,79.28
2018-12-09T21:01:38.437Z,78.66
2018-12-09T21:03:49.319Z,79.25
2018-12-09T21:06:00.214Z,79.56
2018-12-09T21:08:11.121Z,79.47
2018-12-09T21:10:21.961Z,78.86
2018-12-09T21:12:32.837Z,79.85
2018-12-09T21:14:43.735Z,79.83
2018-12-09T21:16:54.619Z,80.76
2018-12-09T21:19:05.489Z,81.25
2018-12-09T21:21:16.463Z,81.33
2018-12-09T21:23:27.368Z,81.40
2018-12-09T21:25:38.220Z,81.13
2018-12-09T21:27:49.089Z,80.14
2018-12-09T21:29:59.976Z,80.51
2018-12-09T21:32:10.836Z,80.98
2018-12-09T21:34:21.688Z,79.70
2018-12-09T21:36:32.569Z,79.48
2018-12-09T21:38:43.465Z,79.81
2018-12-09T21:40:54.375Z,80.18
2018-12-09T21:43:05.280Z,79.16
2018-12-09T21:45:16.139Z,79.14
2018-12-09T21:47:26.988Z,79.17
2018-12-09T21:49:37.832Z,80.56
2018-12-09T21:51:48.813Z,80.60
2018-12-09T21:53:59.683Z,80.53
2018-12-09T21:56:10.551Z,81.15
2018-12-09T21:58:21.420Z,82.12
2018-12-09T22:00:32.296Z,81.63
2018-12-09T22:02:43.171Z,82.00
2018-12-09T22:04:54.054Z,81.84
2018-12-09T22:07:04.954Z,81.57
2018-12-09T22:09:15.791Z,82.36
2018-12-09T22:11:26.643Z,81.57
2018-12-09T22:13:37.487Z,82.24
2018-12-09T22:15:48.380Z,82.07
2018-12-09T22:17:59.214Z,82.76
2018-12-09T22:20:10.144Z,81.99
2018-12-09T22:22:21.054Z,82.09
2018-12-09T22:24:31.900Z,82.50
2018-12-09T22:26:42.781Z,82.10
2018-12-09T22:28:53.627Z,81.12
2018-12-09T22:31:04.472Z,81.63
2018-12-09T22:33:15.433Z,81.13
2018-12-09T22:35:26.413Z,80.79
2018-12-09T22:37:37.433Z,81.57
2018-12-09T22:39:48.324Z,80.64
2018-12-09T22:41:59.193Z,80.80
2018-12-09T22:44:10.043Z,80.13
2018-12-09T22:46:20.884Z,80.31
2018-12-09T22:48:31.744Z,79.88
2018-12-09T22:50:42.610Z,80.58
2018-12-09T22:52:53.508Z,79.82
2018-12-09T22:55:04.500Z,80.17
2018-12-09T22:57:15.393Z,79.83
2018-12-09T22:59:26.349Z,79.96
2018-12-09T23:01:39.360Z,78.68
2018-12-09T23:03:50.298Z,78.84
2018-12-09T23:06:01.225Z,78.68
2018-12-09T23:08:12.060Z,78.74
2018-12-09T23:10:22.948Z,78.89
2018-12-09T23:12:33.770Z,79.18
2018-12-09T23:14:44.646Z,78.80
2018-12-09T23:16:55.488Z,78.30
2018-12-09T23:19:06.379Z,78.86
2018-12-09T23:21:17.232Z,78.08
2018-12-09T23:23:28.085Z,78.70
2018-12-09T23:25:38.916Z,78.46
2018-12-09T23:27:49.765Z,77.94
2018-12-09T23:30:00.614Z,77.59
2018-12-09T23:32:11.458Z,77.18
2018-12-09T23:34:22.329Z,78.33
2018-12-09T23:36:33.181Z,78.07
2018-12-09T23:38:44.044Z,77.76
2018-12-09T23:40:54.864Z,78.30
2018-12-09T23:43:05.699Z,78.27
2018-12-09T23:45:16.676Z,77.22
2018-12-09T23:47:27.541Z,78.11
2018-12-09T23:49:38.392Z,78.11
2018-12-09T23:51:49.242Z,78.75
2018-12-09T23:54:00.213Z,78.82
2018-12-09T23:56:11.090Z,77.98
2018-12-09T23:58:21.912Z,78.73
